createdAt,value
2023-04-18T00:01:27.498Z,62.86
2023-04-18T00:03:56.057Z,62.67
2023-04-18T00:06:24.142Z,62.24
2023-04-18T00:08:52.115Z,62.54
2023-04-18T00:11:20.918Z,62.55
2023-04-18T00:13:48.876Z,62.11
2023-04-18T00:16:16.994Z,62.08
2023-04-18T00:18:45.217Z,61.83
2023-04-18T00:21:13.918Z,61.96
2023-04-18T00:23:41.930Z,61.99
2023-04-18T00:26:10.000Z,61.93
2023-04-18T00:28:38.065Z,62.01
2023-04-18T00:31:06.107Z,62.33
2023-04-18T00:33:34.803Z,62.47
2023-04-18T00:36:03.450Z,62.29
2023-04-18T00:38:31.387Z,62.21
2023-04-18T00:40:59.405Z,62.05
2023-04-18T00:43:28.256Z,61.88
2023-04-18T00:45:57.329Z,61.65
2023-04-18T00:48:25.962Z,61.49
2023-04-18T00:50:55.561Z,61.32
2023-04-18T00:53:23.492Z,61.16
2023-04-18T00:55:51.704Z,61.34
2023-04-18T00:58:20.413Z,61.44
2023-04-18T01:00:48.605Z,61.55
2023-04-18T01:03:18.572Z,61.49
2023-04-18T01:05:47.427Z,61.55
2023-04-18T01:08:15.614Z,61.47
2023-04-18T01:10:43.638Z,60.76
2023-04-18T01:13:19.601Z,61.04
2023-04-18T01:15:49.265Z,60.93
2023-04-18T01:18:17.575Z,61.31
2023-04-18T01:20:49.457Z,61.49
2023-04-18T01:23:18.203Z,61.11
2023-04-18T01:25:46.981Z,60.37
2023-04-18T01:28:15.362Z,60.74
2023-04-18T01:30:43.342Z,61.02
2023-04-18T01:33:11.405Z,60.72
2023-04-18T01:35:39.505Z,60.76
2023-04-18T01:38:07.424Z,60.66
2023-04-18T01:40:35.813Z,60.41
2023-04-18T01:43:03.988Z,60.36
2023-04-18T01:45:31.957Z,60.46
2023-04-18T01:48:00.050Z,60.57
2023-04-18T01:50:28.338Z,60.45
2023-04-18T01:52:56.345Z,60.64
2023-04-18T01:55:24.450Z,60.89
2023-04-18T01:57:53.056Z,61.02
2023-04-18T02:00:21.593Z,61.20
2023-04-18T02:02:50.824Z,61.63
2023-04-18T02:05:22.214Z,61.88
2023-04-18T02:07:50.816Z,61.84
2023-04-18T02:10:20.142Z,61.34
2023-04-18T02:12:48.311Z,61.05
2023-04-18T02:15:16.290Z,61.05
2023-04-18T02:17:44.410Z,60.93
2023-04-18T02:20:13.544Z,60.81
2023-04-18T02:22:41.727Z,60.98
2023-04-18T02:25:10.942Z,61.15
2023-04-18T02:27:40.424Z,61.28
2023-04-18T02:30:09.486Z,61.28
2023-04-18T02:32:37.568Z,61.56
2023-04-18T02:35:06.784Z,61.86
2023-04-18T02:37:34.772Z,62.10
2023-04-18T02:40:05.203Z,62.10
2023-04-18T02:42:33.351Z,62.17
2023-04-18T02:45:02.761Z,62.03
2023-04-18T02:47:37.589Z,61.95
2023-04-18T02:50:11.804Z,61.79
2023-04-18T02:52:40.190Z,61.60
2023-04-18T02:55:09.222Z,61.47
2023-04-18T02:57:39.557Z,61.20
2023-04-18T03:00:39.983Z,60.63
2023-04-18T03:03:34.237Z,60.77
2023-04-18T03:06:25.165Z,60.95
2023-04-18T03:08:55.531Z,60.92
2023-04-18T03:11:25.139Z,60.68
2023-04-18T03:13:53.857Z,61.35
2023-04-18T03:16:22.667Z,61.90
2023-04-18T03:18:50.888Z,62.08
2023-04-18T03:21:19.670Z,62.31
2023-04-18T03:23:48.057Z,62.71
2023-04-18T03:26:16.484Z,62.82
2023-04-18T03:28:45.506Z,62.20
2023-04-18T03:31:13.661Z,61.67
2023-04-18T03:33:44.341Z,61.82
2023-04-18T03:36:18.176Z,61.99
2023-04-18T03:38:46.614Z,61.98
2023-04-18T03:41:14.784Z,61.97
2023-04-18T03:43:42.969Z,61.90
2023-04-18T03:46:11.142Z,62.02
2023-04-18T03:48:39.429Z,62.24
2023-04-18T03:51:10.077Z,62.16
2023-04-18T03:53:38.616Z,61.91
2023-04-18T03:56:07.277Z,61.90
2023-04-18T03:58:54.632Z,61.70
2023-04-18T04:01:23.640Z,61.58
2023-04-18T04:03:53.049Z,62.14
2023-04-18T04:06:22.417Z,62.55
2023-04-18T04:08:50.339Z,62.97
2023-04-18T04:11:22.136Z,63.42
2023-04-18T04:13:50.276Z,63.56
2023-04-18T04:16:21.324Z,63.98
2023-04-18T04:18:50.157Z,63.61
2023-04-18T04:21:20.655Z,64.08
2023-04-18T04:23:54.095Z,64.34
2023-04-18T04:26:30.770Z,65.45
2023-04-18T04:29:05.368Z,65.95
2023-04-18T04:31:34.734Z,65.47
2023-04-18T04:34:03.758Z,65.79
2023-04-18T04:36:33.568Z,65.82
2023-04-18T04:39:04.296Z,65.87
2023-04-18T04:41:55.584Z,65.78
2023-04-18T04:44:26.140Z,66.15
2023-04-18T04:46:55.046Z,66.34
2023-04-18T04:49:25.595Z,66.26
2023-04-18T04:51:54.045Z,66.91
2023-04-18T04:54:22.215Z,67.72
2023-04-18T04:56:50.592Z,67.93
2023-04-18T04:59:18.802Z,68.04
2023-04-18T05:01:47.476Z,67.65
2023-04-18T05:04:17.344Z,67.65
2023-04-18T05:06:46.374Z,67.78
2023-04-18T05:09:14.430Z,67.90
2023-04-18T05:11:42.437Z,68.64
2023-04-18T05:14:10.496Z,68.27
2023-04-18T05:16:38.573Z,67.90
2023-04-18T05:19:06.719Z,67.99
2023-04-18T05:21:34.833Z,68.80
2023-04-18T05:24:02.854Z,68.75
2023-04-18T05:26:30.912Z,68.36
2023-04-18T05:28:59.004Z,67.45
2023-04-18T05:31:27.662Z,67.47
2023-04-18T05:33:56.159Z,67.06
2023-04-18T05:36:24.360Z,67.44
2023-04-18T05:38:52.279Z,67.64
2023-04-18T05:41:20.518Z,66.95
2023-04-18T05:43:57.833Z,66.77
2023-04-18T05:46:33.268Z,66.39
2023-04-18T05:49:02.022Z,67.08
2023-04-18T05:51:30.067Z,66.56
2023-04-18T05:53:58.240Z,67.29
2023-04-18T05:56:26.247Z,66.95
2023-04-18T05:58:54.203Z,66.57
2023-04-18T06:01:22.177Z,66.31
2023-04-18T06:03:50.502Z,66.23
2023-04-18T06:06:18.693Z,66.43
2023-04-18T06:08:46.767Z,66.92
2023-04-18T06:11:20.258Z,66.59
2023-04-18T06:13:48.293Z,65.69
2023-04-18T06:16:16.332Z,65.80
2023-04-18T06:18:44.490Z,66.39
2023-04-18T06:21:13.373Z,66.38
2023-04-18T06:23:41.433Z,65.34
2023-04-18T06:26:09.705Z,65.74
2023-04-18T06:28:37.780Z,65.53
2023-04-18T06:31:06.046Z,65.58
2023-04-18T06:33:34.121Z,64.77
2023-04-18T06:36:02.138Z,65.52
2023-04-18T06:38:30.266Z,64.57
2023-04-18T06:40:58.193Z,64.57
2023-04-18T06:43:26.207Z,65.08
2023-04-18T06:45:54.609Z,64.24
2023-04-18T06:48:22.933Z,63.50
2023-04-18T06:50:50.877Z,63.62
2023-04-18T06:53:18.903Z,63.32
2023-04-18T06:55:46.858Z,61.89
2023-04-18T06:58:17.078Z,61.13
2023-04-18T07:00:47.750Z,61.62
2023-04-18T07:03:16.153Z,62.17
2023-04-18T07:05:44.364Z,62.88
2023-04-18T07:08:12.544Z,62.02
2023-04-18T07:10:41.223Z,62.79
2023-04-18T07:13:09.352Z,62.39
2023-04-18T07:15:37.665Z,62.24
2023-04-18T07:18:06.006Z,61.24
2023-04-18T07:20:34.114Z,61.57
2023-04-18T07:23:02.084Z,61.73
2023-04-18T07:25:30.357Z,60.90
2023-04-18T07:27:58.737Z,60.65
2023-04-18T07:30:26.852Z,60.85
2023-04-18T07:32:55.095Z,60.39
2023-04-18T07:35:23.244Z,58.62
2023-04-18T07:37:53.064Z,59.25
2023-04-18T07:40:21.295Z,60.86
2023-04-18T07:42:49.519Z,63.61
2023-04-18T07:45:17.904Z,62.91
2023-04-18T07:47:46.144Z,61.53
2023-04-18T07:50:14.150Z,59.91
2023-04-18T07:52:42.154Z,59.18
2023-04-18T07:55:10.799Z,61.19
2023-04-18T07:57:38.969Z,64.15
2023-04-18T08:00:07.957Z,62.91
2023-04-18T08:02:41.834Z,61.40
2023-04-18T08:05:10.892Z,57.44
2023-04-18T08:07:39.050Z,57.09
2023-04-18T08:10:07.921Z,58.75
2023-04-18T08:12:37.016Z,61.30
2023-04-18T08:15:06.120Z,61.91
2023-04-18T08:17:34.121Z,61.53
2023-04-18T08:20:05.191Z,59.32
2023-04-18T08:22:33.720Z,59.09
2023-04-18T08:25:05.336Z,59.37
2023-04-18T08:27:33.676Z,61.60
2023-04-18T08:30:04.368Z,61.49
2023-04-18T08:32:32.461Z,59.97
2023-04-18T08:35:01.022Z,60.02
2023-04-18T08:37:29.251Z,58.93
2023-04-18T08:39:57.357Z,58.36
2023-04-18T08:42:25.369Z,59.23
2023-04-18T08:44:54.123Z,57.09
2023-04-18T08:47:22.161Z,56.73
2023-04-18T08:49:52.240Z,57.60
2023-04-18T08:52:21.787Z,57.81
2023-04-18T08:54:50.294Z,56.18
2023-04-18T08:57:26.954Z,56.13
2023-04-18T08:59:55.556Z,56.01
2023-04-18T09:02:42.142Z,56.68
2023-04-18T09:05:15.063Z,55.24
2023-04-18T09:07:43.236Z,52.59
2023-04-18T09:10:12.689Z,52.82
2023-04-18T09:12:52.438Z,52.76
2023-04-18T09:15:23.824Z,53.71
2023-04-18T09:17:56.601Z,54.46
2023-04-18T09:20:41.329Z,54.44
2023-04-18T09:23:14.688Z,53.64
2023-04-18T09:25:45.024Z,53.06
2023-04-18T09:28:30.960Z,52.35
2023-04-18T09:31:12.270Z,52.82
2023-04-18T09:33:44.968Z,52.04
2023-04-18T09:36:18.347Z,51.95
2023-04-18T09:38:47.561Z,51.14
2023-04-18T09:41:19.907Z,52.31
2023-04-18T09:43:49.666Z,52.28
2023-04-18T09:46:17.895Z,51.20
2023-04-18T09:48:46.134Z,50.87
2023-04-18T09:51:17.588Z,50.89
2023-04-18T09:53:47.811Z,50.38
2023-04-18T09:56:26.268Z,51.45
2023-04-18T09:59:09.137Z,49.16
2023-04-18T10:01:37.773Z,45.18
2023-04-18T10:04:09.117Z,43.42
2023-04-18T10:06:40.022Z,45.14
2023-04-18T10:09:09.434Z,44.89
2023-04-18T10:11:37.580Z,45.47
2023-04-18T10:14:09.666Z,45.16
2023-04-18T10:16:38.142Z,44.71
2023-04-18T10:19:29.749Z,44.68
2023-04-18T10:22:00.485Z,44.90
2023-04-18T10:24:54.355Z,44.54
2023-04-18T10:27:48.740Z,43.08
2023-04-18T10:30:17.212Z,41.71
2023-04-18T10:32:48.255Z,42.08
2023-04-18T10:35:16.328Z,41.59
2023-04-18T10:37:51.276Z,42.40
2023-04-18T10:40:33.701Z,42.17
2023-04-18T10:43:01.860Z,43.12
2023-04-18T10:45:31.958Z,42.36
2023-04-18T10:48:27.777Z,40.77
2023-04-18T10:51:29.102Z,39.61
2023-04-18T10:53:58.054Z,40.71
2023-04-18T10:56:28.250Z,40.42
2023-04-18T10:58:56.398Z,41.99
2023-04-18T11:01:32.173Z,41.52
2023-04-18T11:04:01.591Z,41.12
2023-04-18T11:06:31.444Z,40.94
2023-04-18T11:09:10.997Z,40.74
2023-04-18T11:11:39.279Z,41.34
2023-04-18T11:14:07.472Z,39.40
2023-04-18T11:16:35.660Z,40.65
2023-04-18T11:19:24.043Z,41.87
2023-04-18T11:21:52.084Z,41.80
2023-04-18T11:24:24.336Z,41.35
2023-04-18T11:26:56.377Z,40.62
2023-04-18T11:29:24.564Z,41.16
2023-04-18T11:31:58.245Z,41.11
2023-04-18T11:34:30.997Z,39.80
2023-04-18T11:36:59.243Z,40.01
2023-04-18T11:39:27.391Z,40.23
2023-04-18T11:41:57.303Z,41.98
2023-04-18T11:44:26.297Z,40.81
2023-04-18T11:46:54.309Z,40.97
2023-04-18T11:49:32.148Z,40.44
2023-04-18T11:52:01.389Z,41.01
2023-04-18T11:54:44.858Z,40.55
2023-04-18T11:57:22.289Z,39.40
2023-04-18T11:59:56.945Z,39.72
2023-04-18T12:02:39.280Z,40.80
2023-04-18T12:05:08.734Z,41.56
2023-04-18T12:07:42.798Z,41.20
2023-04-18T12:10:19.923Z,41.29
2023-04-18T12:12:49.428Z,41.54
2023-04-18T12:15:17.988Z,40.18
2023-04-18T12:17:48.711Z,40.18
2023-04-18T12:20:16.922Z,40.86
2023-04-18T12:22:51.453Z,39.66
2023-04-18T12:25:27.180Z,40.08
2023-04-18T12:27:58.804Z,39.65
2023-04-18T12:30:29.716Z,37.25
2023-04-18T12:33:00.410Z,38.16
2023-04-18T12:35:29.498Z,38.26
2023-04-18T12:38:00.056Z,38.22
2023-04-18T12:40:29.294Z,39.78
2023-04-18T12:42:57.403Z,40.20
2023-04-18T12:45:25.576Z,40.69
2023-04-18T12:47:53.967Z,40.35
2023-04-18T12:50:24.378Z,40.74
2023-04-18T12:52:53.893Z,40.43
2023-04-18T12:55:24.980Z,38.47
2023-04-18T12:57:54.562Z,38.98
2023-04-18T13:00:28.564Z,38.44
2023-04-18T13:02:56.805Z,39.06
2023-04-18T13:05:29.219Z,37.36
2023-04-18T13:08:15.478Z,36.77
2023-04-18T13:10:47.783Z,37.71
2023-04-18T13:13:16.189Z,38.10
2023-04-18T13:15:44.310Z,38.97
2023-04-18T13:18:12.523Z,39.67
2023-04-18T13:20:40.767Z,38.35
2023-04-18T13:23:08.950Z,38.77
2023-04-18T13:25:36.850Z,39.24
2023-04-18T13:28:05.487Z,40.10
2023-04-18T13:30:36.012Z,40.15
2023-04-18T13:33:04.186Z,39.74
2023-04-18T13:35:32.094Z,39.40
2023-04-18T13:38:00.236Z,37.36
2023-04-18T13:40:28.311Z,37.84
2023-04-18T13:42:56.350Z,37.08
2023-04-18T13:45:24.417Z,37.91
2023-04-18T13:47:52.628Z,38.44
2023-04-18T13:50:21.410Z,38.72
2023-04-18T13:52:52.104Z,37.94
2023-04-18T13:55:20.272Z,36.89
2023-04-18T13:57:48.311Z,38.43
2023-04-18T14:00:17.626Z,37.52
2023-04-18T14:02:45.584Z,36.79
2023-04-18T14:05:14.018Z,36.79
2023-04-18T14:07:42.119Z,37.68
2023-04-18T14:10:11.178Z,37.72
2023-04-18T14:12:40.102Z,37.25
2023-04-18T14:15:14.633Z,35.92
2023-04-18T14:17:45.297Z,35.41
2023-04-18T14:20:15.856Z,36.76
2023-04-18T14:22:43.834Z,37.05
2023-04-18T14:25:11.891Z,36.70
2023-04-18T14:27:40.465Z,37.24
2023-04-18T14:30:10.289Z,37.16
2023-04-18T14:32:38.288Z,38.19
2023-04-18T14:35:07.455Z,38.93
2023-04-18T14:37:35.651Z,38.71
2023-04-18T14:40:05.599Z,38.74
2023-04-18T14:42:33.629Z,38.82
2023-04-18T14:45:01.669Z,38.53
2023-04-18T14:47:32.020Z,39.23
2023-04-18T14:50:00.354Z,40.06
2023-04-18T14:52:28.338Z,40.24
2023-04-18T14:54:56.336Z,40.59
2023-04-18T14:57:25.200Z,41.04
2023-04-18T14:59:54.962Z,41.46
2023-04-18T15:02:23.212Z,41.31
2023-04-18T15:04:52.294Z,40.35
2023-04-18T15:07:20.446Z,40.70
2023-04-18T15:09:48.383Z,41.08
2023-04-18T15:12:16.489Z,41.64
2023-04-18T15:14:44.660Z,41.77
2023-04-18T15:17:12.634Z,41.87
2023-04-18T15:19:41.030Z,41.82
2023-04-18T15:22:09.285Z,42.09
2023-04-18T15:24:37.454Z,42.31
2023-04-18T15:27:06.350Z,42.52
2023-04-18T15:29:34.528Z,43.28
2023-04-18T15:32:02.633Z,43.35
2023-04-18T15:34:31.413Z,42.37
2023-04-18T15:36:59.556Z,41.26
2023-04-18T15:39:27.460Z,40.53
2023-04-18T15:41:55.593Z,40.96
2023-04-18T15:44:23.629Z,41.28
2023-04-18T15:46:52.048Z,41.48
2023-04-18T15:49:20.259Z,41.79
2023-04-18T15:51:48.304Z,41.89
2023-04-18T15:54:16.705Z,42.09
2023-04-18T15:56:44.954Z,41.58
2023-04-18T15:59:13.833Z,41.52
2023-04-18T16:01:45.199Z,41.81
2023-04-18T16:04:14.303Z,42.18
2023-04-18T16:06:43.250Z,42.10
2023-04-18T16:09:11.171Z,41.87
2023-04-18T16:11:39.088Z,42.13
2023-04-18T16:14:07.160Z,42.27
2023-04-18T16:16:35.091Z,42.48
2023-04-18T16:19:04.531Z,42.88
2023-04-18T16:21:32.678Z,42.66
2023-04-18T16:24:00.874Z,42.69
2023-04-18T16:26:29.255Z,43.27
2023-04-18T16:28:57.425Z,43.25
2023-04-18T16:31:25.468Z,43.30
2023-04-18T16:33:53.541Z,43.26
2023-04-18T16:36:21.510Z,43.27
2023-04-18T16:38:49.383Z,43.67
2023-04-18T16:41:17.433Z,44.44
2023-04-18T16:43:45.450Z,46.84
2023-04-18T16:46:13.936Z,48.99
2023-04-18T16:48:42.007Z,50.53
2023-04-18T16:51:10.014Z,51.57
2023-04-18T16:53:38.141Z,53.22
2023-04-18T16:56:08.027Z,53.34
2023-04-18T16:58:36.097Z,54.51
2023-04-18T17:01:04.197Z,55.17
2023-04-18T17:03:32.395Z,55.35
2023-04-18T17:06:01.772Z,55.38
2023-04-18T17:08:32.094Z,56.17
2023-04-18T17:11:02.158Z,55.50
2023-04-18T17:13:31.600Z,56.32
2023-04-18T17:15:59.976Z,56.72
2023-04-18T17:18:29.526Z,57.01
2023-04-18T17:20:57.567Z,57.67
2023-04-18T17:23:25.607Z,57.78
2023-04-18T17:25:53.705Z,58.52
2023-04-18T17:28:23.741Z,58.77
2023-04-18T17:30:52.060Z,59.19
2023-04-18T17:33:20.075Z,59.03
2023-04-18T17:35:48.358Z,59.99
2023-04-18T17:38:16.396Z,60.62
2023-04-18T17:40:44.487Z,60.67
2023-04-18T17:43:12.863Z,60.60
2023-04-18T17:45:41.366Z,60.43
2023-04-18T17:48:09.752Z,61.13
2023-04-18T17:50:38.185Z,60.94
2023-04-18T17:53:06.268Z,61.32
2023-04-18T17:55:34.343Z,60.90
2023-04-18T17:58:02.510Z,61.70
2023-04-18T18:00:30.750Z,61.80
2023-04-18T18:03:01.712Z,62.91
2023-04-18T18:05:30.577Z,62.92
2023-04-18T18:08:00.304Z,65.08
2023-04-18T18:10:28.912Z,58.59
2023-04-18T18:12:57.306Z,57.19
2023-04-18T18:15:25.570Z,57.42
2023-04-18T18:17:55.050Z,58.27
2023-04-18T18:20:23.454Z,58.59
2023-04-18T18:22:52.813Z,59.23
2023-04-18T18:25:21.351Z,60.68
2023-04-18T18:27:51.457Z,61.16
2023-04-18T18:30:19.524Z,61.81
2023-04-18T18:32:47.705Z,62.91
2023-04-18T18:35:15.868Z,63.17
2023-04-18T18:37:43.936Z,64.81
2023-04-18T18:40:12.840Z,62.60
2023-04-18T18:42:42.682Z,59.44
2023-04-18T18:45:10.963Z,56.64
2023-04-18T18:47:39.996Z,56.90
2023-04-18T18:50:09.409Z,57.24
2023-04-18T18:52:37.683Z,58.85
2023-04-18T18:55:07.289Z,60.38
2023-04-18T18:57:35.284Z,60.16
2023-04-18T19:00:11.286Z,60.52
2023-04-18T19:02:39.845Z,60.85
2023-04-18T19:05:09.002Z,62.16
2023-04-18T19:07:37.017Z,65.00
2023-04-18T19:10:07.022Z,67.17
2023-04-18T19:12:35.965Z,66.59
2023-04-18T19:15:05.506Z,64.15
2023-04-18T19:17:33.575Z,62.82
2023-04-18T19:20:01.970Z,61.82
2023-04-18T19:22:30.737Z,60.44
2023-04-18T19:25:00.740Z,59.17
2023-04-18T19:27:28.926Z,56.57
2023-04-18T19:29:56.987Z,56.03
2023-04-18T19:32:25.086Z,56.38
2023-04-18T19:34:53.139Z,56.83
2023-04-18T19:37:21.144Z,57.36
2023-04-18T19:39:49.199Z,58.55
2023-04-18T19:42:17.155Z,58.86
2023-04-18T19:44:45.389Z,59.16
2023-04-18T19:47:13.567Z,59.65
2023-04-18T19:49:41.633Z,60.60
2023-04-18T19:52:09.673Z,61.85
2023-04-18T19:54:37.772Z,61.96
2023-04-18T19:57:06.557Z,64.48
2023-04-18T19:59:34.654Z,66.53
2023-04-18T20:02:05.651Z,66.63
2023-04-18T20:04:34.736Z,66.38
2023-04-18T20:07:02.901Z,64.89
2023-04-18T20:09:30.910Z,63.39
2023-04-18T20:12:00.671Z,63.47
2023-04-18T20:14:29.369Z,62.05
2023-04-18T20:16:57.501Z,61.74
2023-04-18T20:19:25.780Z,60.06
2023-04-18T20:21:53.952Z,57.59
2023-04-18T20:24:22.007Z,56.85
2023-04-18T20:26:51.499Z,58.44
2023-04-18T20:29:19.573Z,58.81
2023-04-18T20:31:47.518Z,61.16
2023-04-18T20:34:15.865Z,60.41
2023-04-18T20:36:45.158Z,63.36
2023-04-18T20:39:13.891Z,65.10
2023-04-18T20:41:48.557Z,64.10
2023-04-18T20:44:19.113Z,62.47
2023-04-18T20:46:49.289Z,61.26
2023-04-18T20:49:17.548Z,61.69
2023-04-18T20:51:45.937Z,61.45
2023-04-18T20:54:14.147Z,59.96
2023-04-18T20:56:42.383Z,58.12
2023-04-18T20:59:10.442Z,58.97
2023-04-18T21:01:38.542Z,59.22
2023-04-18T21:04:06.926Z,62.74
2023-04-18T21:06:35.290Z,64.61
2023-04-18T21:09:04.060Z,64.19
2023-04-18T21:11:32.145Z,61.93
2023-04-18T21:14:00.186Z,62.74
2023-04-18T21:16:28.308Z,61.45
2023-04-18T21:18:56.335Z,60.46
2023-04-18T21:21:24.921Z,58.28
2023-04-18T21:23:52.879Z,57.75
2023-04-18T21:26:21.109Z,57.29
2023-04-18T21:29:00.636Z,59.26
2023-04-18T21:31:30.957Z,60.32
2023-04-18T21:34:00.887Z,63.90
2023-04-18T21:36:30.633Z,65.53
2023-04-18T21:39:00.869Z,63.98
2023-04-18T21:41:28.944Z,61.67
2023-04-18T21:43:56.921Z,60.66
2023-04-18T21:46:25.027Z,61.17
2023-04-18T21:48:53.095Z,61.02
2023-04-18T21:51:21.151Z,60.21
2023-04-18T21:53:49.240Z,57.70
2023-04-18T21:56:17.322Z,57.30
2023-04-18T21:58:45.491Z,59.79
2023-04-18T22:01:13.542Z,60.40
2023-04-18T22:03:41.946Z,63.22
2023-04-18T22:06:10.684Z,63.19
2023-04-18T22:08:39.156Z,63.01
2023-04-18T22:11:09.386Z,61.92
2023-04-18T22:13:37.570Z,59.65
2023-04-18T22:16:08.275Z,58.00
2023-04-18T22:18:37.916Z,58.24
2023-04-18T22:21:06.809Z,59.26
2023-04-18T22:23:34.846Z,59.15
2023-04-18T22:26:02.711Z,60.92
2023-04-18T22:28:30.988Z,63.89
2023-04-18T22:30:58.990Z,65.41
2023-04-18T22:33:27.288Z,64.72
2023-04-18T22:35:55.917Z,63.44
2023-04-18T22:38:25.286Z,62.16
2023-04-18T22:40:53.257Z,61.23
2023-04-18T22:43:23.886Z,59.99
2023-04-18T22:45:51.868Z,58.88
2023-04-18T22:48:20.164Z,57.12
2023-04-18T22:50:50.055Z,58.00
2023-04-18T22:53:18.376Z,57.88
2023-04-18T22:55:46.668Z,59.98
2023-04-18T22:58:14.962Z,58.14
2023-04-18T23:00:43.063Z,58.48
2023-04-18T23:03:12.087Z,61.16
2023-04-18T23:05:40.691Z,60.51
2023-04-18T23:08:08.730Z,59.71
2023-04-18T23:10:36.734Z,60.12
2023-04-18T23:13:04.786Z,60.76
2023-04-18T23:15:32.926Z,62.41
2023-04-18T23:18:01.184Z,67.07
2023-04-18T23:20:29.224Z,68.20
2023-04-18T23:22:57.164Z,67.74
2023-04-18T23:25:25.345Z,65.59
2023-04-18T23:27:53.485Z,62.06
2023-04-18T23:30:21.435Z,61.59
2023-04-18T23:32:49.510Z,61.30
2023-04-18T23:35:17.908Z,60.40
2023-04-18T23:37:46.192Z,59.99
2023-04-18T23:40:14.488Z,57.86
2023-04-18T23:42:42.834Z,56.80
2023-04-18T23:45:11.835Z,57.18
2023-04-18T23:47:39.957Z,58.92
2023-04-18T23:50:09.469Z,58.11
2023-04-18T23:52:38.710Z,58.32
2023-04-18T23:55:07.464Z,59.90
2023-04-18T23:57:35.688Z,62.23
